createdAt,value
2017-11-25T00:01:42.122Z,9.50
2017-11-25T00:04:09.655Z,9.50
2017-11-25T00:06:37.217Z,9.50
2017-11-25T00:09:04.805Z,9.50
2017-11-25T00:11:32.336Z,9.50
2017-11-25T00:14:03.001Z,9.50
2017-11-25T00:16:30.587Z,9.50
2017-11-25T00:18:58.908Z,9.50
2017-11-25T00:21:26.435Z,9.50
2017-11-25T00:23:54.803Z,9.40
2017-11-25T00:26:23.097Z,9.40
2017-11-25T00:28:50.636Z,9.40
2017-11-25T00:31:18.961Z,9.40
2017-11-25T00:33:46.542Z,9.30
2017-11-25T00:36:14.114Z,9.40
2017-11-25T00:38:41.649Z,9.40
2017-11-25T00:41:09.219Z,9.40
2017-11-25T00:43:36.759Z,9.50
2017-11-25T00:46:04.295Z,9.50
2017-11-25T00:48:31.857Z,9.50
2017-11-25T00:50:59.423Z,9.50
2017-11-25T00:53:26.981Z,9.60
2017-11-25T00:55:54.511Z,9.60
2017-11-25T00:58:22.072Z,9.60
2017-11-25T01:00:49.604Z,9.60
2017-11-25T01:03:17.140Z,9.60
2017-11-25T01:05:44.704Z,9.60
2017-11-25T01:08:12.244Z,9.50
2017-11-25T01:10:39.800Z,9.50
2017-11-25T01:13:07.364Z,9.50
2017-11-25T01:15:34.942Z,9.50
2017-11-25T01:18:02.483Z,9.50
2017-11-25T01:20:30.036Z,9.50
2017-11-25T01:22:57.597Z,9.50
2017-11-25T01:25:25.153Z,9.50
2017-11-25T01:27:53.468Z,9.50
2017-11-25T01:30:21.002Z,9.40
2017-11-25T01:32:48.582Z,9.50
2017-11-25T01:35:16.137Z,9.50
2017-11-25T01:37:43.683Z,9.50
2017-11-25T01:40:11.255Z,9.50
2017-11-25T01:42:38.806Z,9.50
2017-11-25T01:45:06.396Z,9.50
2017-11-25T01:47:33.927Z,9.40
2017-11-25T01:50:01.604Z,9.40
2017-11-25T01:52:29.134Z,9.40
2017-11-25T01:54:57.449Z,9.30
2017-11-25T01:57:25.018Z,9.30
2017-11-25T01:59:52.591Z,9.30
2017-11-25T02:02:20.151Z,9.30
2017-11-25T02:04:47.700Z,9.30
2017-11-25T02:07:15.239Z,9.30
2017-11-25T02:09:42.827Z,9.30
2017-11-25T02:12:10.404Z,9.30
2017-11-25T02:14:37.944Z,9.30
2017-11-25T02:17:06.249Z,9.20
2017-11-25T02:19:33.814Z,9.20
2017-11-25T02:22:01.361Z,9.20
2017-11-25T02:24:29.763Z,9.20
2017-11-25T02:26:58.072Z,9.20
2017-11-25T02:29:25.616Z,9.20
2017-11-25T02:31:53.199Z,9.20
2017-11-25T02:34:20.739Z,9.20
2017-11-25T02:36:48.341Z,9.20
2017-11-25T02:39:15.896Z,9.20
2017-11-25T02:41:43.487Z,9.30
2017-11-25T02:44:11.059Z,9.30
2017-11-25T02:46:39.369Z,9.30
2017-11-25T02:49:06.939Z,9.30
2017-11-25T02:51:34.484Z,9.30
2017-11-25T02:54:02.035Z,9.20
2017-11-25T02:56:29.612Z,9.30
2017-11-25T02:58:57.184Z,9.20
2017-11-25T03:01:24.760Z,9.30
2017-11-25T03:03:52.305Z,9.30
2017-11-25T03:06:19.851Z,9.30
2017-11-25T03:08:47.416Z,9.20
2017-11-25T03:11:14.963Z,9.30
2017-11-25T03:13:42.531Z,9.20
2017-11-25T03:16:10.728Z,9.30
2017-11-25T03:18:39.115Z,9.20
2017-11-25T03:21:06.671Z,9.30
2017-11-25T03:23:34.208Z,9.20
2017-11-25T03:26:01.772Z,9.30
2017-11-25T03:28:29.327Z,9.20
2017-11-25T03:30:56.904Z,9.20
2017-11-25T03:33:24.470Z,9.10
2017-11-25T03:35:52.038Z,9.00
2017-11-25T03:38:19.603Z,9.00
2017-11-25T03:40:47.137Z,8.90
2017-11-25T03:43:14.676Z,8.80
2017-11-25T03:45:42.247Z,8.80
2017-11-25T03:48:09.784Z,8.80
2017-11-25T03:50:38.112Z,8.80
2017-11-25T03:53:05.653Z,8.80
2017-11-25T03:55:33.200Z,8.80
2017-11-25T03:58:00.745Z,8.80
2017-11-25T04:00:29.043Z,8.80
2017-11-25T04:02:56.615Z,8.70
2017-11-25T04:05:24.151Z,8.70
2017-11-25T04:07:51.718Z,8.70
2017-11-25T04:10:19.295Z,8.70
2017-11-25T04:12:46.825Z,8.60
2017-11-25T04:15:14.383Z,8.50
2017-11-25T04:17:42.687Z,8.50
2017-11-25T04:20:10.296Z,8.40
2017-11-25T04:22:37.832Z,8.40
2017-11-25T04:25:05.364Z,8.30
2017-11-25T04:27:32.932Z,8.20
2017-11-25T04:30:00.469Z,8.20
2017-11-25T04:32:28.035Z,8.10
2017-11-25T04:34:55.572Z,8.10
2017-11-25T04:37:23.878Z,8.00
2017-11-25T04:39:51.437Z,8.00
2017-11-25T04:42:18.967Z,7.90
2017-11-25T04:44:47.308Z,7.90
2017-11-25T04:47:14.837Z,7.90
2017-11-25T04:49:42.394Z,7.90
2017-11-25T04:52:09.949Z,7.80
2017-11-25T04:54:37.476Z,7.80
2017-11-25T04:57:05.065Z,7.80
2017-11-25T04:59:32.632Z,7.80
2017-11-25T05:02:00.192Z,7.90
2017-11-25T05:04:27.747Z,7.90
2017-11-25T05:06:55.309Z,7.90
2017-11-25T05:09:22.871Z,7.80
2017-11-25T05:11:50.409Z,7.80
2017-11-25T05:14:18.712Z,7.80
2017-11-25T05:16:46.300Z,7.80
2017-11-25T05:19:13.834Z,7.90
2017-11-25T05:21:41.396Z,7.80
2017-11-25T05:24:08.952Z,7.80
2017-11-25T05:26:36.494Z,7.80
2017-11-25T05:29:04.842Z,7.80
2017-11-25T05:31:32.379Z,7.80
2017-11-25T05:33:59.951Z,7.80
2017-11-25T05:36:27.493Z,7.70
2017-11-25T05:38:55.042Z,7.70
2017-11-25T05:41:22.617Z,7.60
2017-11-25T05:43:50.687Z,7.60
2017-11-25T05:46:18.251Z,7.50
2017-11-25T05:48:45.777Z,7.50
2017-11-25T05:51:13.311Z,7.40
2017-11-25T05:53:40.875Z,7.40
2017-11-25T05:56:09.195Z,7.40
2017-11-25T05:58:36.750Z,7.30
2017-11-25T06:01:04.448Z,7.30
2017-11-25T06:03:32.007Z,7.30
2017-11-25T06:05:59.556Z,7.30
2017-11-25T06:08:27.119Z,7.30
2017-11-25T06:10:54.684Z,7.20
2017-11-25T06:13:22.225Z,7.20
2017-11-25T06:15:49.759Z,7.10
2017-11-25T06:18:17.332Z,7.10
2017-11-25T06:20:44.879Z,7.10
2017-11-25T06:23:12.441Z,7.00
2017-11-25T06:25:39.999Z,7.00
2017-11-25T06:28:07.537Z,7.00
2017-11-25T06:30:35.878Z,7.00
2017-11-25T06:33:03.404Z,6.90
2017-11-25T06:35:30.965Z,6.90
2017-11-25T06:37:58.496Z,6.90
2017-11-25T06:40:26.840Z,6.90
2017-11-25T06:42:54.367Z,6.90
2017-11-25T06:45:21.896Z,6.90
2017-11-25T06:51:06.437Z,6.90
2017-11-25T06:53:34.009Z,6.90
2017-11-25T06:56:01.556Z,6.80
2017-11-25T06:58:29.876Z,6.80
2017-11-25T07:00:58.212Z,6.80
2017-11-25T07:03:25.738Z,6.80
2017-11-25T07:05:53.295Z,6.80
2017-11-25T07:08:20.815Z,6.80
2017-11-25T07:10:48.359Z,6.70
2017-11-25T07:13:16.884Z,6.70
2017-11-25T07:15:45.176Z,6.70
2017-11-25T07:18:12.728Z,6.60
2017-11-25T07:20:40.263Z,6.60
2017-11-25T07:23:08.566Z,6.60
2017-11-25T07:25:36.121Z,6.60
2017-11-25T07:28:04.413Z,6.60
2017-11-25T07:30:31.981Z,6.60
2017-11-25T07:32:59.518Z,6.60
2017-11-25T07:35:40.183Z,6.50
2017-11-25T07:38:08.485Z,6.50
2017-11-25T07:40:36.028Z,6.40
2017-11-25T07:43:03.595Z,6.40
2017-11-25T07:45:31.132Z,6.40
2017-11-25T07:48:03.452Z,6.40
2017-11-25T07:50:30.985Z,6.40
2017-11-25T07:52:58.513Z,6.40
2017-11-25T07:55:26.843Z,6.30
2017-11-25T07:58:16.048Z,6.30
2017-11-25T08:00:43.608Z,6.30
2017-11-25T08:03:11.158Z,6.30
2017-11-25T08:05:38.702Z,6.30
2017-11-25T08:08:21.327Z,6.30
2017-11-25T08:10:48.884Z,6.30
2017-11-25T08:13:16.432Z,6.30
2017-11-25T08:15:43.964Z,6.30
2017-11-25T08:18:11.513Z,6.20
2017-11-25T08:20:39.805Z,6.20
2017-11-25T08:23:19.738Z,6.20
2017-11-25T08:25:48.030Z,6.10
2017-11-25T08:28:15.559Z,6.20
2017-11-25T08:31:00.733Z,6.10
2017-11-25T08:33:29.045Z,6.00
2017-11-25T08:35:56.600Z,6.00
2017-11-25T08:38:24.137Z,6.00
2017-11-25T08:40:52.453Z,5.90
2017-11-25T08:43:20.009Z,5.90
2017-11-25T08:45:47.539Z,5.90
2017-11-25T08:48:15.862Z,5.80
2017-11-25T08:50:43.392Z,5.80
2017-11-25T08:53:10.932Z,5.70
2017-11-25T08:55:39.263Z,5.70
2017-11-25T08:58:06.837Z,5.60
2017-11-25T09:00:34.415Z,5.70
2017-11-25T09:03:01.960Z,5.60
2017-11-25T09:05:29.505Z,5.60
2017-11-25T09:07:57.075Z,5.60
2017-11-25T09:10:24.619Z,5.60
2017-11-25T09:12:52.176Z,5.60
2017-11-25T09:15:19.715Z,5.60
2017-11-25T09:17:47.262Z,5.60
2017-11-25T09:20:14.821Z,5.60
2017-11-25T09:22:42.368Z,5.60
2017-11-25T09:25:10.691Z,5.50
2017-11-25T09:27:38.249Z,5.50
2017-11-25T09:30:05.827Z,5.50
2017-11-25T09:32:33.368Z,5.50
2017-11-25T09:35:00.916Z,5.50
2017-11-25T09:37:28.537Z,5.40
2017-11-25T09:39:56.088Z,5.40
2017-11-25T09:42:23.672Z,5.40
2017-11-25T09:44:51.996Z,5.40
2017-11-25T09:47:19.564Z,5.40
2017-11-25T09:49:47.129Z,5.40
2017-11-25T09:52:14.732Z,5.30
2017-11-25T09:54:43.066Z,5.30
2017-11-25T09:57:10.610Z,5.20
2017-11-25T09:59:38.169Z,5.20
2017-11-25T10:02:05.730Z,5.20
2017-11-25T10:04:33.280Z,5.20
2017-11-25T10:07:00.851Z,5.10
2017-11-25T10:09:28.392Z,5.10
2017-11-25T10:12:03.831Z,5.10
2017-11-25T10:14:31.367Z,5.10
2017-11-25T10:16:59.670Z,5.10
2017-11-25T10:19:27.240Z,5.10
2017-11-25T10:21:54.798Z,5.10
2017-11-25T10:24:22.363Z,5.10
2017-11-25T10:26:49.908Z,5.10
2017-11-25T10:29:17.454Z,5.10
2017-11-25T10:31:45.792Z,5.10
2017-11-25T10:34:16.379Z,5.10
2017-11-25T10:36:43.962Z,5.10
2017-11-25T10:39:11.503Z,5.10
2017-11-25T10:41:39.060Z,5.10
2017-11-25T10:44:06.633Z,5.10
2017-11-25T10:46:34.188Z,5.10
2017-11-25T10:49:01.757Z,5.10
2017-11-25T10:51:29.303Z,5.20
2017-11-25T10:53:56.846Z,5.20
2017-11-25T10:56:25.188Z,5.40
2017-11-25T10:58:52.716Z,5.40
2017-11-25T11:01:20.283Z,5.50
2017-11-25T11:03:47.837Z,5.60
2017-11-25T11:06:15.420Z,5.60
2017-11-25T11:08:42.981Z,5.60
2017-11-25T11:11:10.544Z,5.60
2017-11-25T11:13:38.123Z,5.60
2017-11-25T11:16:05.664Z,5.60
2017-11-25T11:18:33.204Z,5.60
2017-11-25T11:21:00.768Z,5.50
2017-11-25T11:23:28.319Z,5.50
2017-11-25T11:25:55.887Z,5.50
2017-11-25T11:28:23.424Z,5.50
2017-11-25T11:30:50.982Z,5.50
2017-11-25T11:33:18.546Z,5.60
2017-11-25T11:35:46.084Z,5.60
2017-11-25T11:38:14.425Z,5.70
2017-11-25T11:40:41.957Z,5.60
2017-11-25T11:43:09.505Z,5.70
2017-11-25T11:45:37.066Z,5.70
2017-11-25T11:48:04.638Z,5.70
2017-11-25T11:50:32.204Z,5.80
2017-11-25T11:52:59.737Z,5.80
2017-11-25T11:55:27.279Z,5.80
2017-11-25T11:57:55.604Z,5.90
2017-11-25T12:00:23.749Z,5.80
2017-11-25T12:02:51.339Z,5.90
2017-11-25T12:05:18.911Z,5.80
2017-11-25T12:07:47.225Z,5.80
2017-11-25T12:10:15.565Z,5.80
2017-11-25T12:12:43.090Z,5.80
2017-11-25T12:15:10.679Z,5.80
2017-11-25T12:17:38.220Z,5.70
2017-11-25T12:20:05.777Z,5.70
2017-11-25T12:22:33.353Z,5.80
2017-11-25T12:25:00.899Z,5.80
2017-11-25T12:27:28.457Z,5.80
2017-11-25T12:29:56.001Z,5.70
2017-11-25T12:32:24.317Z,5.70
2017-11-25T12:34:51.901Z,5.70
2017-11-25T12:37:19.448Z,5.80
2017-11-25T12:39:47.024Z,5.80
2017-11-25T12:42:14.567Z,5.90
2017-11-25T12:44:42.109Z,5.90
2017-11-25T12:47:09.663Z,5.90
2017-11-25T12:49:37.235Z,6.00
2017-11-25T12:52:04.800Z,6.00
2017-11-25T12:54:32.341Z,6.00
2017-11-25T12:56:59.884Z,6.10
2017-11-25T12:59:28.212Z,6.20
2017-11-25T13:01:56.525Z,6.30
2017-11-25T13:04:24.945Z,6.40
2017-11-25T13:06:52.541Z,6.40
2017-11-25T13:09:20.085Z,6.40
2017-11-25T13:11:47.644Z,6.50
2017-11-25T13:14:15.191Z,6.50
2017-11-25T13:16:42.754Z,6.40
2017-11-25T13:19:10.302Z,6.40
2017-11-25T13:21:37.880Z,6.40
2017-11-25T13:24:05.436Z,6.40
2017-11-25T13:26:32.973Z,6.30
2017-11-25T13:29:00.541Z,6.30
2017-11-25T13:31:28.059Z,6.40
2017-11-25T13:33:55.596Z,6.40
2017-11-25T13:36:24.040Z,6.50
2017-11-25T13:38:51.643Z,6.50
2017-11-25T13:41:30.714Z,6.40
2017-11-25T13:43:59.006Z,6.40
2017-11-25T13:46:26.562Z,6.40
2017-11-25T13:48:54.116Z,6.40
2017-11-25T13:51:40.969Z,6.40
2017-11-25T13:54:08.528Z,6.40
2017-11-25T13:56:36.086Z,6.50
2017-11-25T13:59:03.988Z,6.50
2017-11-25T14:01:31.551Z,6.50
2017-11-25T14:03:59.096Z,6.60
2017-11-25T14:06:26.660Z,6.60
2017-11-25T14:08:54.197Z,6.60
2017-11-25T14:11:21.766Z,6.70
2017-11-25T14:13:49.321Z,6.70
2017-11-25T14:16:42.787Z,6.80
2017-11-25T14:19:10.358Z,6.90
2017-11-25T14:21:37.890Z,6.90
2017-11-25T14:24:05.423Z,6.90
2017-11-25T14:26:32.976Z,6.90
2017-11-25T14:29:01.275Z,6.70
2017-11-25T14:31:28.836Z,6.70
2017-11-25T14:33:56.372Z,6.70
2017-11-25T14:36:24.665Z,6.50
2017-11-25T14:38:52.250Z,6.50
2017-11-25T14:41:19.781Z,6.40
2017-11-25T14:43:47.331Z,6.40
2017-11-25T14:46:15.620Z,6.40
2017-11-25T14:48:43.151Z,6.40
2017-11-25T14:51:10.715Z,6.40
2017-11-25T14:53:39.025Z,6.40
2017-11-25T14:56:06.591Z,6.40
2017-11-25T14:58:34.664Z,6.40
2017-11-25T15:01:02.234Z,6.30
2017-11-25T15:03:29.800Z,6.30
2017-11-25T15:05:57.335Z,6.20
2017-11-25T15:08:24.926Z,6.20
2017-11-25T15:10:52.479Z,5.80
2017-11-25T15:13:20.015Z,5.30
2017-11-25T15:15:47.580Z,5.10
2017-11-25T15:18:15.120Z,4.80
2017-11-25T15:20:43.501Z,4.50
2017-11-25T15:23:11.080Z,4.40
2017-11-25T15:26:02.837Z,4.30
2017-11-25T15:28:30.393Z,4.30
2017-11-25T15:30:57.956Z,4.20
2017-11-25T15:33:25.522Z,4.20
2017-11-25T15:35:53.071Z,4.20
2017-11-25T15:38:20.640Z,4.30
2017-11-25T15:40:48.213Z,4.30
2017-11-25T15:43:15.747Z,4.30
2017-11-25T15:45:43.360Z,4.30
2017-11-25T15:48:14.827Z,4.20
2017-11-25T15:50:43.164Z,4.20
2017-11-25T15:53:10.753Z,4.20
2017-11-25T15:55:39.075Z,4.20
2017-11-25T15:58:06.648Z,4.20
2017-11-25T16:00:34.183Z,4.20
2017-11-25T16:03:01.750Z,4.20
2017-11-25T16:05:29.303Z,4.10
2017-11-25T16:07:56.834Z,4.00
2017-11-25T16:10:25.188Z,3.90
2017-11-25T16:12:52.727Z,3.90
2017-11-25T16:15:20.286Z,3.90
2017-11-25T16:17:47.825Z,3.90
2017-11-25T16:20:15.404Z,3.90
2017-11-25T16:23:03.556Z,3.90
2017-11-25T16:25:32.100Z,3.90
2017-11-25T16:27:59.656Z,3.90
2017-11-25T16:30:27.194Z,4.00
2017-11-25T16:32:54.772Z,4.00
2017-11-25T16:35:23.083Z,4.00
2017-11-25T16:37:50.643Z,4.00
2017-11-25T16:40:18.168Z,4.00
2017-11-25T16:42:46.484Z,4.10
2017-11-25T16:45:14.079Z,4.10
2017-11-25T16:47:41.619Z,4.10
2017-11-25T16:50:09.172Z,4.20
2017-11-25T16:52:36.719Z,4.20
2017-11-25T16:55:04.256Z,4.30
2017-11-25T16:57:31.872Z,4.30
2017-11-25T16:59:59.419Z,4.40
2017-11-25T17:02:26.975Z,4.40
2017-11-25T17:04:54.536Z,4.40
2017-11-25T17:07:22.083Z,4.50
2017-11-25T17:09:49.637Z,4.40
2017-11-25T17:12:17.205Z,4.10
2017-11-25T17:14:44.783Z,3.90
2017-11-25T17:17:12.327Z,3.60
2017-11-25T17:19:39.874Z,3.40
2017-11-25T17:22:07.419Z,3.30
2017-11-25T17:24:34.962Z,3.10
2017-11-25T17:27:03.283Z,2.90
2017-11-25T17:29:38.467Z,2.80
2017-11-25T17:32:06.033Z,2.80
2017-11-25T17:34:34.357Z,2.70
2017-11-25T17:37:01.955Z,2.60
2017-11-25T17:39:29.526Z,2.70
2017-11-25T17:41:57.078Z,2.60
2017-11-25T17:44:24.653Z,2.60
2017-11-25T17:47:07.144Z,2.60
2017-11-25T17:49:34.717Z,2.60
2017-11-25T17:52:03.038Z,2.70
2017-11-25T17:54:30.596Z,2.60
2017-11-25T17:56:58.157Z,2.70
2017-11-25T17:59:25.703Z,2.60
2017-11-25T18:01:53.287Z,2.60
2017-11-25T18:04:21.616Z,2.70
2017-11-25T18:06:49.176Z,2.70
2017-11-25T18:09:16.768Z,2.70
2017-11-25T18:11:44.312Z,2.70
2017-11-25T18:14:12.684Z,2.70
2017-11-25T18:16:41.028Z,2.70
2017-11-25T18:19:08.617Z,2.70
2017-11-25T18:21:36.947Z,2.70
2017-11-25T18:24:05.188Z,2.70
2017-11-25T18:26:34.118Z,2.70
2017-11-25T18:29:01.675Z,2.70
2017-11-25T18:31:29.256Z,2.80
2017-11-25T18:33:56.809Z,2.70
2017-11-25T18:36:24.350Z,2.70
2017-11-25T18:38:51.922Z,2.70
2017-11-25T18:41:19.468Z,2.70
2017-11-25T18:43:47.038Z,2.80
2017-11-25T18:46:14.596Z,2.80
2017-11-25T18:48:42.140Z,2.80
2017-11-25T18:51:09.708Z,2.80
2017-11-25T18:53:37.256Z,2.80
2017-11-25T18:56:08.841Z,2.90
2017-11-25T18:58:36.395Z,2.90
2017-11-25T19:01:03.986Z,2.90
2017-11-25T19:03:31.533Z,2.90
2017-11-25T19:05:59.848Z,2.90
2017-11-25T19:08:31.332Z,2.90
2017-11-25T19:10:58.876Z,2.90
2017-11-25T19:13:26.467Z,3.00
2017-11-25T19:15:54.017Z,3.00
2017-11-25T19:18:21.574Z,3.00
2017-11-25T19:20:49.153Z,3.10
2017-11-25T19:23:16.688Z,3.10
2017-11-25T19:25:44.270Z,3.10
2017-11-25T19:28:11.844Z,3.10
2017-11-25T19:30:39.406Z,3.10
2017-11-25T19:33:06.976Z,3.10
2017-11-25T19:35:34.535Z,3.10
2017-11-25T19:38:02.103Z,3.10
2017-11-25T19:40:29.664Z,3.10
2017-11-25T19:42:57.210Z,3.10
2017-11-25T19:45:24.771Z,3.10
2017-11-25T19:47:52.313Z,3.10
2017-11-25T19:50:19.891Z,3.10
2017-11-25T19:52:47.458Z,3.10
2017-11-25T19:55:15.070Z,3.10
2017-11-25T19:57:42.632Z,3.10
2017-11-25T20:00:10.173Z,3.10
2017-11-25T20:02:38.517Z,3.10
2017-11-25T20:05:06.069Z,3.10
2017-11-25T20:07:33.653Z,3.10
2017-11-25T20:10:11.375Z,3.10
2017-11-25T20:12:39.723Z,3.10
2017-11-25T20:15:07.285Z,3.10
2017-11-25T20:17:41.660Z,3.10
2017-11-25T20:20:09.206Z,3.10
2017-11-25T20:22:36.746Z,3.10
2017-11-25T20:25:05.105Z,3.10
2017-11-25T20:27:32.676Z,3.10
2017-11-25T20:30:00.253Z,3.10
2017-11-25T20:32:28.564Z,3.10
2017-11-25T20:34:58.061Z,3.00
2017-11-25T20:37:42.443Z,3.00
2017-11-25T20:40:09.989Z,3.00
2017-11-25T20:42:37.560Z,3.00
2017-11-25T20:45:05.114Z,2.90
2017-11-25T20:47:32.700Z,2.90
2017-11-25T20:50:00.281Z,2.80
2017-11-25T20:52:27.837Z,2.80
2017-11-25T20:54:55.413Z,2.80
2017-11-25T20:57:23.731Z,2.70
2017-11-25T20:59:51.279Z,2.70
2017-11-25T21:02:18.862Z,2.80
2017-11-25T21:04:46.413Z,2.80
2017-11-25T21:07:13.986Z,2.80
2017-11-25T21:09:41.530Z,2.80
2017-11-25T21:12:09.075Z,2.80
2017-11-25T21:14:36.648Z,2.90
2017-11-25T21:17:04.198Z,2.90
2017-11-25T21:19:31.764Z,2.90
2017-11-25T21:21:59.298Z,2.80
2017-11-25T21:24:27.625Z,2.90
2017-11-25T21:26:55.216Z,2.80
2017-11-25T21:29:22.757Z,2.80
2017-11-25T21:31:50.346Z,2.80
2017-11-25T21:34:18.667Z,2.70
2017-11-25T21:36:46.336Z,2.70
2017-11-25T21:39:13.904Z,2.70
2017-11-25T21:41:41.457Z,2.60
2017-11-25T21:44:09.040Z,2.50
2017-11-25T21:46:36.595Z,2.50
2017-11-25T21:49:04.152Z,2.40
2017-11-25T21:51:31.730Z,2.40
2017-11-25T21:53:59.361Z,2.30
2017-11-25T21:56:26.937Z,2.30
2017-11-25T21:58:54.469Z,2.30
2017-11-25T22:01:22.011Z,2.30
2017-11-25T22:03:50.336Z,2.40
2017-11-25T22:06:17.870Z,2.40
2017-11-25T22:08:45.436Z,2.30
2017-11-25T22:11:12.987Z,2.40
2017-11-25T22:13:40.532Z,2.40
2017-11-25T22:16:08.104Z,2.50
2017-11-25T22:18:35.663Z,2.50
2017-11-25T22:21:03.224Z,2.50
2017-11-25T22:23:30.775Z,2.50
2017-11-25T22:25:58.347Z,2.40
2017-11-25T22:28:25.887Z,2.40
2017-11-25T22:30:54.216Z,2.30
2017-11-25T22:33:21.756Z,2.30
2017-11-25T22:35:49.301Z,2.30
2017-11-25T22:38:16.873Z,2.30
2017-11-25T22:40:44.419Z,2.30
2017-11-25T22:43:11.991Z,2.30
2017-11-25T22:45:39.543Z,2.30
2017-11-25T22:48:07.117Z,2.30
2017-11-25T22:50:34.652Z,2.30
2017-11-25T22:53:02.197Z,2.30
2017-11-25T22:55:30.537Z,2.50
2017-11-25T22:57:58.081Z,2.40
2017-11-25T23:00:25.652Z,2.50
2017-11-25T23:02:53.183Z,2.50
2017-11-25T23:05:20.723Z,2.50
2017-11-25T23:07:49.059Z,2.50
2017-11-25T23:10:16.603Z,2.50
2017-11-25T23:12:44.172Z,2.50
2017-11-25T23:15:11.717Z,2.50
2017-11-25T23:17:39.288Z,2.40
2017-11-25T23:20:06.830Z,2.30
2017-11-25T23:22:34.383Z,2.30
2017-11-25T23:25:01.944Z,2.20
2017-11-25T23:27:29.481Z,2.20
2017-11-25T23:29:57.812Z,2.20
2017-11-25T23:32:25.352Z,2.10
2017-11-25T23:34:52.890Z,2.20
2017-11-25T23:37:20.456Z,2.10
2017-11-25T23:39:48.012Z,2.10
2017-11-25T23:42:15.596Z,2.10
2017-11-25T23:44:43.128Z,2.10
2017-11-25T23:47:10.719Z,2.00
2017-11-25T23:49:38.276Z,1.90
2017-11-25T23:52:05.812Z,1.90
2017-11-25T23:54:33.400Z,1.80
2017-11-25T23:57:00.935Z,1.80
2017-11-25T23:59:28.477Z,1.80
